Time;durP1;ratioP1;P1;durP2;ratioP2;P2;SDS_P1;SDS_P2;PMS_P1;PMS_P2;Temp;Humidity;BMP_temperature;BMP_pressure;BME280_temperature;BME280_humidity;BME280_pressure;Samples;Min_cycle;Max_cycle;Signal;HPM_P1;HPM_P2
2023/09/02 00:00:54;;;;;;;8.63;3.92;;;;;;;21.53;52.40;93621.94;4985875;28;20112;-92
2023/09/02 00:03:20;;;;;;;3.72;3.28;;;;;;;21.54;52.49;93615.19;4993264;28;20053;-92
2023/09/02 00:05:45;;;;;;;5.07;3.63;;;;;;;21.52;52.66;93616.97;4991163;28;20041;-92
2023/09/02 00:08:10;;;;;;;4.25;3.15;;;;;;;21.53;52.54;93619.19;4989553;28;20050;-92
2023/09/02 00:10:36;;;;;;;5.80;3.55;;;;;;;21.53;52.40;93623.97;4989540;28;20038;-91
2023/09/02 00:13:03;;;;;;;4.47;3.30;;;;;;;21.53;52.42;93623.97;4989155;28;20044;-91
2023/09/02 00:15:29;;;;;;;4.97;3.28;;;;;;;21.53;52.66;93629.47;5005411;28;20042;-91
2023/09/02 00:17:55;;;;;;;5.35;3.58;;;;;;;21.51;52.65;93621.00;4986578;28;20034;-92
2023/09/02 00:20:21;;;;;;;4.85;3.40;;;;;;;21.50;52.45;93620.25;4993347;28;20083;-92
2023/09/02 00:22:46;;;;;;;5.25;3.83;;;;;;;21.50;52.86;93627.75;4988922;28;20046;-93
2023/09/02 00:25:12;;;;;;;5.03;3.60;;;;;;;21.50;52.50;93616.75;4983878;28;20057;-93
2023/09/02 00:27:37;;;;;;;4.93;3.42;;;;;;;21.49;52.95;93629.75;4988591;28;20048;-91
2023/09/02 00:30:03;;;;;;;4.63;3.30;;;;;;;21.52;52.62;93627.97;5008543;28;20041;-92
2023/09/02 00:32:29;;;;;;;5.38;3.38;;;;;;;21.50;52.68;93625.75;4982669;28;20061;-92
2023/09/02 00:34:54;;;;;;;4.78;3.38;;;;;;;21.51;52.42;93627.22;4991362;28;20361;-92
2023/09/02 00:37:21;;;;;;;4.53;3.35;;;;;;;21.50;52.77;93627.75;4992470;28;20037;-92
2023/09/02 00:39:46;;;;;;;4.65;3.47;;;;;;;21.49;52.67;93634.53;4994681;28;20527;-92
2023/09/02 00:42:12;;;;;;;3.80;2.72;;;;;;;21.48;52.45;93624.78;4990377;28;20041;-93
2023/09/02 00:44:37;;;;;;;3.85;3.08;;;;;;;21.49;52.64;93624.25;4986909;28;20034;-92
2023/09/02 00:47:03;;;;;;;4.30;3.10;;;;;;;21.49;52.73;93620.78;4989487;28;20049;-92
2023/09/02 00:49:28;;;;;;;6.65;3.70;;;;;;;21.50;52.53;93623.00;4986022;28;20034;-92
2023/09/02 00:51:54;;;;;;;4.47;3.30;;;;;;;21.50;52.81;93631.25;4984911;28;20583;-92
2023/09/02 00:54:19;;;;;;;4.32;3.28;;;;;;;21.51;52.76;93629.25;4990753;28;20044;-92
2023/09/02 00:56:45;;;;;;;4.82;3.60;;;;;;;21.49;52.64;93624.25;5009586;28;20117;-92
2023/09/02 00:59:10;;;;;;;5.68;3.88;;;;;;;21.49;52.55;93626.28;5009168;28;20033;-91
2023/09/02 01:01:36;;;;;;;4.70;3.42;;;;;;;21.49;52.52;93624.25;4998642;28;20092;-91
2023/09/02 01:04:02;;;;;;;3.72;2.85;;;;;;;21.50;52.64;93625.00;4991112;28;20053;-92
2023/09/02 01:06:27;;;;;;;4.18;3.20;;;;;;;21.49;52.68;93629.03;4997311;28;20498;-93
2023/09/02 01:08:53;;;;;;;5.28;3.15;;;;;;;21.47;52.75;93632.31;4997050;28;20061;-91
2023/09/02 01:11:19;;;;;;;3.95;2.88;;;;;;;21.49;52.63;93616.00;4984039;28;20034;-91
2023/09/02 01:13:44;;;;;;;4.13;2.83;;;;;;;21.49;52.60;93624.25;4989910;28;20049;-92
2023/09/02 01:16:10;;;;;;;3.88;2.83;;;;;;;21.48;52.58;93627.53;4998777;28;20038;-92
2023/09/02 01:18:36;;;;;;;4.93;3.08;;;;;;;21.47;52.58;93621.28;4998696;28;20042;-92
2023/09/02 01:21:36;;;;;;;4.65;3.08;;;;;;;21.47;52.64;93613.03;4976641;28;20037;-92
2023/09/02 01:24:16;;;;;;;4.22;3.05;;;;;;;21.47;52.45;93615.78;4999461;28;20049;-91
2023/09/02 01:26:53;;;;;;;4.97;3.47;;;;;;;21.49;52.45;93620.78;4988621;28;20041;-92
2023/09/02 01:29:20;;;;;;;4.50;3.08;;;;;;;21.47;52.32;93623.31;5011611;28;20049;-92
2023/09/02 01:31:46;;;;;;;3.22;2.80;;;;;;;21.47;52.38;93623.31;5006712;28;20030;-92
2023/09/02 01:34:12;;;;;;;6.50;2.88;;;;;;;21.46;52.52;93616.31;4988778;28;20048;-91
2023/09/02 01:36:39;;;;;;;5.85;3.10;;;;;;;21.47;52.45;93621.28;4990136;28;20128;-92
2023/09/02 01:39:05;;;;;;;4.95;3.40;;;;;;;21.46;52.42;93621.81;4980734;28;20083;-93
2023/09/02 01:41:31;;;;;;;3.38;2.75;;;;;;;21.47;52.69;93626.06;5001522;28;20037;-92
2023/09/02 01:43:56;;;;;;;5.68;3.20;;;;;;;21.44;52.39;93633.34;5013891;28;20025;-92
2023/09/02 01:46:22;;;;;;;4.93;3.17;;;;;;;21.45;52.67;93632.06;4996047;28;20080;-91
2023/09/02 01:48:47;;;;;;;4.05;2.85;;;;;;;21.45;52.38;93632.06;5011968;28;20045;-91
2023/09/02 01:51:13;;;;;;;5.07;3.33;;;;;;;21.48;52.27;93627.53;4985930;28;20038;-93
2023/09/02 01:53:38;;;;;;;4.97;3.08;;;;;;;21.46;52.56;93633.56;4996244;28;20049;-91
2023/09/02 01:56:04;;;;;;;4.03;2.72;;;;;;;21.45;52.55;93623.81;4995432;28;20057;-92
2023/09/02 01:58:29;;;;;;;7.07;3.25;;;;;;;21.47;52.38;93631.56;4982056;28;20619;-92
2023/09/02 02:00:54;;;;;;;4.95;3.25;;;;;;;21.46;52.48;93632.81;4994546;28;20404;-91
2023/09/02 02:03:27;;;;;;;4.40;2.60;;;;;;;21.45;52.46;93628.59;4990740;28;20467;-92
2023/09/02 02:05:53;;;;;;;6.10;2.67;;;;;;;21.45;52.34;93631.34;5004067;28;20041;-92
2023/09/02 02:08:35;;;;;;;5.18;3.17;;;;;;;21.44;52.60;93630.59;4995964;28;20416;-92
2023/09/02 02:11:01;;;;;;;4.72;2.90;;;;;;;21.46;52.37;93630.81;5003204;28;20034;-92
2023/09/02 02:13:26;;;;;;;3.42;2.95;;;;;;;21.45;52.45;93626.56;4995195;28;20038;-92
2023/09/02 02:15:52;;;;;;;3.58;2.72;;;;;;;21.44;52.42;93629.84;4994432;28;20057;-92
2023/09/02 02:18:17;;;;;;;4.13;2.67;;;;;;;21.44;52.58;93622.34;5005200;28;20042;-92
2023/09/02 02:21:00;;;;;;;3.28;2.60;;;;;;;21.44;52.55;93622.34;5005165;28;20503;-91
2023/09/02 02:23:25;;;;;;;3.63;2.70;;;;;;;21.45;52.41;93625.84;4996193;28;20044;-93
2023/09/02 02:25:51;;;;;;;4.13;2.50;;;;;;;21.45;52.39;93623.09;5001343;28;20045;-91
2023/09/02 02:28:16;;;;;;;4.70;2.63;;;;;;;21.44;52.44;93630.59;5008609;28;20042;-92
2023/09/02 02:30:41;;;;;;;3.15;2.40;;;;;;;21.45;52.47;93634.09;4994111;28;20588;-92
2023/09/02 02:33:07;;;;;;;3.45;2.42;;;;;;;21.45;52.41;93647.84;4992434;28;20107;-92
2023/09/02 02:35:32;;;;;;;3.67;2.95;;;;;;;21.44;52.57;93632.59;4994902;28;20045;-91
2023/09/02 02:37:59;;;;;;;3.03;2.50;;;;;;;21.45;52.26;93639.59;4996640;28;20052;-93
2023/09/02 02:40:25;;;;;;;3.08;2.38;;;;;;;21.45;52.26;93640.34;4995517;28;20169;-92
2023/09/02 02:42:50;;;;;;;4.03;3.00;;;;;;;21.45;52.45;93636.84;5009132;28;20544;-92
2023/09/02 02:45:16;;;;;;;5.00;2.85;;;;;;;21.44;52.36;93638.84;4991130;28;20133;-92
2023/09/02 02:47:41;;;;;;;4.22;2.45;;;;;;;21.45;52.44;93642.34;4991592;28;20034;-92
2023/09/02 02:50:07;;;;;;;3.65;2.33;;;;;;;21.44;52.13;93649.09;4986207;28;20165;-92
2023/09/02 02:52:33;;;;;;;4.00;2.70;;;;;;;21.44;52.42;93649.09;4993651;28;20099;-91
2023/09/02 02:54:58;;;;;;;5.70;2.80;;;;;;;21.43;52.36;93640.13;4990638;28;20037;-92
2023/09/02 02:57:24;;;;;;;4.88;2.72;;;;;;;21.42;52.46;93652.41;4994258;28;20520;-92
2023/09/02 02:59:52;;;;;;;3.95;2.47;;;;;;;21.42;52.50;93654.41;4996651;28;20381;-91
2023/09/02 03:02:17;;;;;;;3.47;2.50;;;;;;;21.43;52.21;93655.91;4999252;28;20065;-92
2023/09/02 03:04:48;;;;;;;3.10;2.80;;;;;;;21.43;52.46;93656.66;4992686;28;20041;-91
2023/09/02 03:07:14;;;;;;;3.53;2.50;;;;;;;21.41;52.50;93663.94;4991114;28;20499;-92
2023/09/02 03:09:39;;;;;;;3.60;2.55;;;;;;;21.43;52.39;93653.88;4993306;28;20045;-92
2023/09/02 03:12:06;;;;;;;4.68;2.80;;;;;;;21.44;52.14;93657.34;4992054;28;20053;-92
2023/09/02 03:14:33;;;;;;;3.90;2.28;;;;;;;21.42;52.37;93655.16;4980289;28;20509;-91
2023/09/02 03:16:58;;;;;;;3.13;2.40;;;;;;;21.40;52.53;93657.69;4990927;28;20071;-92
2023/09/02 03:19:25;;;;;;;3.17;2.50;;;;;;;21.41;52.68;93653.66;4990305;28;20041;-92
2023/09/02 03:21:50;;;;;;;3.92;2.40;;;;;;;21.40;52.61;93659.69;5002528;28;20057;-93
2023/09/02 03:24:16;;;;;;;3.38;2.33;;;;;;;21.44;52.48;93655.34;4998384;28;20513;-92
2023/09/02 03:26:41;;;;;;;4.13;2.80;;;;;;;21.44;52.60;93655.34;4993444;28;20580;-92
2023/09/02 03:29:07;;;;;;;3.35;2.53;;;;;;;21.43;52.26;93644.91;4991826;28;20053;-91
2023/09/02 03:31:32;;;;;;;3.67;2.40;;;;;;;21.42;52.71;93632.41;4991463;28;20120;-91
2023/09/02 03:33:58;;;;;;;3.75;2.80;;;;;;;21.42;52.40;93646.16;4995245;28;20477;-92
2023/09/02 03:36:23;;;;;;;3.17;2.30;;;;;;;21.41;52.74;93641.94;4994249;28;20054;-92
2023/09/02 03:38:49;;;;;;;4.13;2.20;;;;;;;21.43;52.45;93647.66;4992270;28;20042;-92
2023/09/02 03:41:17;;;;;;;2.97;2.33;;;;;;;21.40;52.66;93646.69;4987175;28;20048;-91
2023/09/02 03:43:44;;;;;;;2.90;2.42;;;;;;;21.40;52.42;93652.19;5000971;28;20428;-92
2023/09/02 03:46:10;;;;;;;2.88;2.00;;;;;;;21.42;52.53;93646.16;4995483;28;20045;-92
2023/09/02 03:48:35;;;;;;;3.50;2.63;;;;;;;21.42;52.37;93657.16;5011590;28;20075;-92
2023/09/02 03:51:05;;;;;;;3.00;2.20;;;;;;;21.40;52.48;93654.19;4993126;28;20038;-91
2023/09/02 03:53:31;;;;;;;3.60;2.15;;;;;;;21.41;52.32;93653.66;4989679;28;20038;-91
2023/09/02 03:55:58;;;;;;;3.65;2.28;;;;;;;21.39;52.33;93661.69;5001537;28;20038;-92
2023/09/02 03:58:24;;;;;;;3.35;2.05;;;;;;;21.40;52.45;93660.44;4990674;28;20065;-91
2023/09/02 04:00:49;;;;;;;3.47;2.58;;;;;;;21.41;52.49;93664.66;4991669;28;20053;-91
2023/09/02 04:03:19;;;;;;;3.80;2.60;;;;;;;21.40;52.25;93665.19;4990744;28;20038;-92
2023/09/02 04:05:46;;;;;;;2.92;2.17;;;;;;;21.39;52.23;93660.97;4983212;28;20046;-92
2023/09/02 04:08:12;;;;;;;2.40;1.60;;;;;;;21.38;52.42;93662.97;4990602;28;20048;-92
2023/09/02 04:10:37;;;;;;;3.78;2.78;;;;;;;21.41;52.31;93663.94;4983833;28;20046;-92
2023/09/02 04:13:03;;;;;;;3.67;2.60;;;;;;;21.41;52.40;93663.94;4978168;28;20037;-91
2023/09/02 04:15:28;;;;;;;2.05;1.73;;;;;;;21.40;52.45;93663.19;4995242;28;20468;-91
2023/09/02 04:17:54;;;;;;;2.72;1.92;;;;;;;21.38;52.44;93659.47;4989764;28;20037;-93
2023/09/02 04:20:20;;;;;;;2.75;2.35;;;;;;;21.39;52.51;93669.22;5006694;28;20046;-93
2023/09/02 04:22:46;;;;;;;2.60;2.10;;;;;;;21.39;52.44;93669.94;4997443;28;20449;-92
2023/09/02 04:25:12;;;;;;;3.58;2.25;;;;;;;21.39;52.52;93674.72;4993793;28;20481;-91
2023/09/02 04:27:37;;;;;;;2.40;2.05;;;;;;;21.39;52.44;93671.97;4988511;28;20138;-93
2023/09/02 04:30:03;;;;;;;4.60;2.30;;;;;;;21.39;52.43;93686.44;4979741;28;20101;-94
2023/09/02 04:32:29;;;;;;;3.53;2.28;;;;;;;21.39;52.35;93680.94;4993657;28;20037;-90
2023/09/02 04:34:55;;;;;;;3.78;2.13;;;;;;;21.39;52.37;93680.94;4991728;28;20034;-92
2023/09/02 04:37:22;;;;;;;2.50;2.17;;;;;;;21.40;52.56;93681.69;4982928;28;20117;-92
2023/09/02 04:39:47;;;;;;;3.08;2.10;;;;;;;21.38;52.70;93687.72;4985530;28;20124;-92
2023/09/02 04:42:13;;;;;;;2.00;1.70;;;;;;;21.40;52.44;93681.69;4998901;28;20030;-91
2023/09/02 04:44:38;;;;;;;2.00;1.73;;;;;;;21.42;52.33;93690.16;5000188;28;20273;-92
2023/09/02 04:47:04;;;;;;;3.65;2.22;;;;;;;21.41;52.32;93685.94;4988966;28;20042;-92
2023/09/02 04:49:29;;;;;;;2.70;1.80;;;;;;;21.39;52.36;93689.19;4993072;28;20369;-92
2023/09/02 04:51:54;;;;;;;2.08;1.88;;;;;;;21.40;52.30;93689.94;4993095;28;20111;-92
2023/09/02 04:54:20;;;;;;;2.78;1.95;;;;;;;21.41;52.43;93691.44;4992334;28;20057;-92
2023/09/02 04:56:45;;;;;;;2.55;1.98;;;;;;;21.42;52.30;93692.91;4994156;28;20442;-92
2023/09/02 04:59:11;;;;;;;3.53;2.78;;;;;;;21.44;52.50;93696.59;4984532;28;20493;-91
2023/09/02 05:01:36;;;;;;;3.28;2.22;;;;;;;21.42;52.43;93696.41;4987742;28;20045;-92
2023/09/02 05:04:02;;;;;;;3.40;2.47;;;;;;;21.42;52.43;93710.16;4989782;28;20421;-91
2023/09/02 05:06:27;;;;;;;3.05;2.22;;;;;;;21.42;52.40;93706.66;4983559;28;20041;-92
2023/09/02 05:08:54;;;;;;;3.15;2.33;;;;;;;21.43;52.43;93708.16;4976918;28;20038;-92
2023/09/02 05:11:20;;;;;;;2.53;1.90;;;;;;;21.44;52.28;93709.63;4985211;28;20046;-91
2023/09/02 05:13:47;;;;;;;3.03;2.33;;;;;;;21.46;52.32;93707.09;4990956;28;20136;-91
2023/09/02 05:16:13;;;;;;;3.60;2.35;;;;;;;21.49;52.30;93706.78;4981919;28;20046;-92
2023/09/02 05:18:38;;;;;;;2.92;2.03;;;;;;;21.47;52.13;93714.81;5005553;28;20037;-92
2023/09/02 05:21:04;;;;;;;2.20;2.00;;;;;;;21.46;52.29;93713.31;4980822;28;20041;-91
2023/09/02 05:23:29;;;;;;;2.78;1.92;;;;;;;21.47;52.13;93717.56;5013559;28;20500;-92
2023/09/02 05:25:55;;;;;;;4.65;2.42;;;;;;;21.49;52.29;93719.78;4983040;28;20029;-91
2023/09/02 05:28:22;;;;;;;3.80;2.58;;;;;;;21.48;52.21;93721.81;4993806;28;20132;-91
2023/09/02 05:30:47;;;;;;;3.17;1.92;;;;;;;21.49;52.12;93725.28;5004417;28;20040;-93
2023/09/02 05:33:14;;;;;;;4.80;2.90;;;;;;;21.48;52.37;93729.31;4990911;28;20041;-92
2023/09/02 05:35:39;;;;;;;2.55;2.00;;;;;;;21.49;52.25;93731.53;5005051;28;20504;-93
2023/09/02 05:38:06;;;;;;;3.15;2.25;;;;;;;21.51;52.06;93728.25;5030310;28;20045;-92
2023/09/02 05:40:31;;;;;;;3.15;2.35;;;;;;;21.49;52.17;93734.28;4996079;28;20045;-93
2023/09/02 05:42:57;;;;;;;3.10;2.05;;;;;;;21.49;52.17;93736.28;4999686;28;20111;-91
2023/09/02 05:45:22;;;;;;;2.78;2.05;;;;;;;21.50;52.45;93738.53;4981481;28;20267;-91
2023/09/02 05:47:48;;;;;;;3.22;2.05;;;;;;;21.52;52.49;93735.25;4995680;28;20516;-92
2023/09/02 05:50:13;;;;;;;2.78;1.88;;;;;;;21.54;51.88;93732.72;4982877;28;20076;-90
2023/09/02 05:52:40;;;;;;;2.97;2.10;;;;;;;21.52;52.27;93724.25;5012189;28;20507;-91
2023/09/02 05:55:06;;;;;;;2.03;1.77;;;;;;;21.54;52.20;93733.47;5003582;28;20124;-91
2023/09/02 05:57:32;;;;;;;2.42;1.98;;;;;;;21.54;52.08;93738.22;5001964;28;20111;-92
2023/09/02 05:59:57;;;;;;;3.60;2.20;;;;;;;21.54;52.02;93736.22;5009915;28;20045;-92
2023/09/02 06:02:23;;;;;;;3.47;2.33;;;;;;;21.55;52.16;93739.72;4988738;28;20048;-92
2023/09/02 06:04:48;;;;;;;2.45;2.00;;;;;;;21.55;51.99;93737.72;4993911;28;20516;-93
2023/09/02 06:07:14;;;;;;;3.53;2.15;;;;;;;21.56;52.04;93732.94;5008817;28;20929;-91
2023/09/02 06:09:39;;;;;;;2.55;1.98;;;;;;;21.59;52.00;93736.66;4994445;28;20130;-91
2023/09/02 06:12:05;;;;;;;3.38;2.30;;;;;;;21.59;52.13;93742.16;4991728;28;20052;-92
2023/09/02 06:14:30;;;;;;;2.38;1.85;;;;;;;21.60;52.23;93747.16;4986594;28;20072;-92
2023/09/02 06:16:56;;;;;;;2.60;1.90;;;;;;;21.63;51.96;93748.09;4990736;28;20056;-91
2023/09/02 06:19:21;;;;;;;2.67;1.90;;;;;;;21.65;51.69;93748.34;5009127;28;20040;-92
2023/09/02 06:21:46;;;;;;;2.45;1.83;;;;;;;21.66;51.84;93749.78;5007265;28;20034;-91
2023/09/02 06:24:12;;;;;;;1.85;1.55;;;;;;;21.65;51.95;93746.28;4992833;28;20045;-92
2023/09/02 06:26:37;;;;;;;2.58;2.08;;;;;;;21.67;51.92;93756.78;4983748;28;20567;-92
2023/09/02 06:29:03;;;;;;;3.22;2.15;;;;;;;21.67;52.02;93752.03;4988123;28;20049;-91
2023/09/02 06:31:28;;;;;;;2.17;1.88;;;;;;;21.68;51.95;93750.00;4995088;28;20093;-92
2023/09/02 06:33:54;;;;;;;2.88;1.90;;;;;;;21.69;51.83;93757.00;4990287;28;20029;-91
2023/09/02 06:36:21;;;;;;;2.47;1.73;;;;;;;21.68;51.88;93756.25;4991813;28;20050;-92
2023/09/02 06:38:46;;;;;;;3.25;2.00;;;;;;;21.70;52.03;93755.72;5013058;28;20029;-91
2023/09/02 06:41:15;;;;;;;2.92;1.80;;;;;;;21.70;52.08;93761.25;4994661;28;20808;-93
2023/09/02 06:43:41;;;;;;;2.20;1.63;;;;;;;21.71;51.99;93749.72;4995858;28;20037;-92
2023/09/02 06:46:16;;;;;;;2.45;1.63;;;;;;;21.70;51.91;93758.47;4993139;28;20064;-91
2023/09/02 06:48:41;;;;;;;2.10;1.80;;;;;;;21.72;52.08;93753.94;5008947;28;20041;-92
2023/09/02 06:51:07;;;;;;;2.22;1.83;;;;;;;21.70;51.86;93764.72;4988776;28;20385;-92
2023/09/02 06:53:32;;;;;;;2.85;1.88;;;;;;;21.71;52.02;93760.72;5006147;28;20041;-94
2023/09/02 06:55:57;;;;;;;1.80;1.52;;;;;;;21.72;51.90;93769.72;4999376;28;20508;-91
2023/09/02 06:58:23;;;;;;;2.45;1.75;;;;;;;21.72;51.77;93764.94;4985179;28;20550;-92
2023/09/02 07:00:48;;;;;;;2.60;1.55;;;;;;;21.74;52.01;93767.19;4980255;28;20507;-92
2023/09/02 07:03:14;;;;;;;2.22;1.77;;;;;;;21.74;52.02;93767.19;5002499;28;20088;-92
2023/09/02 07:05:39;;;;;;;2.15;1.50;;;;;;;21.75;52.27;93772.16;4984168;28;20049;-92
2023/09/02 07:08:05;;;;;;;2.25;1.60;;;;;;;21.76;52.00;93775.66;4999875;28;20489;-93
2023/09/02 07:10:30;;;;;;;2.65;1.80;;;;;;;21.77;51.95;93772.38;4994727;28;20056;-92
2023/09/02 07:12:56;;;;;;;2.00;1.60;;;;;;;21.78;51.62;93773.88;5009533;28;20509;-92
2023/09/02 07:15:21;;;;;;;1.73;1.58;;;;;;;21.79;51.91;93771.88;4994574;28;20037;-92
2023/09/02 07:17:47;;;;;;;1.45;1.35;;;;;;;21.80;51.92;93779.59;4992680;28;20341;-93
2023/09/02 07:20:12;;;;;;;2.47;1.45;;;;;;;21.81;51.87;93777.59;4983655;28;20088;-92
2023/09/02 07:22:38;;;;;;;2.13;1.60;;;;;;;21.81;51.98;93781.09;5013014;28;20091;-92
2023/09/02 07:25:06;;;;;;;2.45;1.65;;;;;;;21.84;51.78;93776.53;5008641;28;20036;-92
2023/09/02 07:27:33;;;;;;;2.08;1.75;;;;;;;21.85;51.88;93784.28;4986003;28;20041;-92
2023/09/02 07:29:59;;;;;;;1.80;1.50;;;;;;;21.85;51.47;93776.03;4989840;28;20489;-92
2023/09/02 07:32:24;;;;;;;1.83;1.45;;;;;;;21.85;52.03;93778.03;5010345;28;20117;-92
2023/09/02 07:34:50;;;;;;;2.72;1.50;;;;;;;21.88;51.65;93774.19;4998536;28;20041;-93
2023/09/02 07:37:15;;;;;;;1.55;1.23;;;;;;;21.89;51.83;93778.44;4994354;28;20274;-93
2023/09/02 07:39:41;;;;;;;1.33;1.23;;;;;;;21.91;51.66;93784.16;4991998;28;20030;-92
2023/09/02 07:42:06;;;;;;;2.90;1.75;;;;;;;21.93;51.82;93784.38;4990027;28;20056;-93
2023/09/02 07:44:32;;;;;;;2.65;1.70;;;;;;;21.96;51.81;93782.59;4994058;28;20033;-92
2023/09/02 07:46:57;;;;;;;2.58;1.67;;;;;;;21.97;51.79;93784.09;4993242;28;20053;-92
2023/09/02 07:49:23;;;;;;;1.33;1.00;;;;;;;21.96;52.02;93777.84;5002861;28;20152;-92
2023/09/02 07:51:48;;;;;;;2.10;1.50;;;;;;;21.97;51.94;93792.34;5003484;28;20050;-92
2023/09/02 07:54:14;;;;;;;2.10;1.50;;;;;;;21.97;51.89;93784.09;4993734;28;20026;-92
2023/09/02 07:56:40;;;;;;;1.83;1.42;;;;;;;22.01;51.73;93784.56;4994600;28;20038;-92
2023/09/02 07:59:06;;;;;;;1.55;1.42;;;;;;;22.02;51.97;93794.31;4993277;28;20037;-92
2023/09/02 08:01:32;;;;;;;2.13;1.63;;;;;;;22.01;51.80;93792.81;4991517;28;20037;-93
2023/09/02 08:03:57;;;;;;;1.73;1.40;;;;;;;22.02;51.84;93786.78;5011294;28;20134;-93
2023/09/02 08:06:22;;;;;;;2.20;1.45;;;;;;;22.04;51.73;93787.00;5001340;28;20373;-92
2023/09/02 08:08:48;;;;;;;1.83;1.48;;;;;;;22.05;51.48;93787.75;5007747;28;20455;-92
2023/09/02 08:11:17;;;;;;;1.50;1.33;;;;;;;22.05;51.71;93794.00;5005484;28;20038;-93
2023/09/02 08:13:43;;;;;;;1.85;1.45;;;;;;;22.06;51.68;93795.47;4993717;28;20048;-92
2023/09/02 08:16:08;;;;;;;1.90;1.58;;;;;;;22.07;51.61;93799.72;4984663;28;20068;-92
2023/09/02 08:18:34;;;;;;;1.40;1.13;;;;;;;22.07;52.20;93798.97;4974127;28;20084;-92
2023/09/02 08:21:00;;;;;;;1.50;1.20;;;;;;;22.06;51.74;93795.47;4993059;28;20440;-92
2023/09/02 08:23:25;;;;;;;2.70;1.70;;;;;;;22.06;52.00;93800.25;4987181;28;20053;-92
2023/09/02 08:25:50;;;;;;;3.75;1.20;;;;;;;22.06;51.74;93803.00;4994916;28;20061;-91
2023/09/02 08:28:16;;;;;;;1.60;1.20;;;;;;;22.06;51.86;93803.75;4973751;28;20476;-90
2023/09/02 08:30:45;;;;;;;2.00;1.50;;;;;;;22.09;51.76;93799.16;4990980;28;20037;-91
2023/09/02 08:33:10;;;;;;;2.45;1.42;;;;;;;22.10;51.75;93801.41;4966321;28;20060;-92
2023/09/02 08:35:36;;;;;;;1.80;1.48;;;;;;;22.11;51.62;93813.91;5000154;28;20042;-93
2023/09/02 08:38:03;;;;;;;2.15;1.50;;;;;;;22.12;52.09;93812.63;4984363;28;20050;-93
2023/09/02 08:40:28;;;;;;;1.35;1.25;;;;;;;22.14;51.77;93809.34;4987153;28;20575;-93
2023/09/02 08:42:54;;;;;;;2.70;1.63;;;;;;;22.14;52.20;93803.84;4987644;28;20038;-92
2023/09/02 08:45:21;;;;;;;1.35;1.20;;;;;;;22.12;52.18;93804.38;5007614;28;20057;-93
2023/09/02 08:47:47;;;;;;;2.92;1.88;;;;;;;22.12;52.21;93804.38;4982233;28;20048;-93
2023/09/02 08:50:14;;;;;;;1.77;1.52;;;;;;;22.15;52.35;93805.34;4986038;28;20046;-93
2023/09/02 08:52:40;;;;;;;3.55;1.70;;;;;;;22.11;52.42;93800.13;5007503;28;20406;-93
2023/09/02 08:55:06;;;;;;;5.72;1.92;;;;;;;22.11;52.68;93800.13;5002191;28;20053;-92
2023/09/02 08:57:32;;;;;;;2.80;1.67;;;;;;;22.10;52.31;93806.91;4982264;28;20763;-94
2023/09/02 08:59:59;;;;;;;3.67;1.55;;;;;;;22.12;52.71;93807.13;4987929;28;20037;-93
2023/09/02 09:02:24;;;;;;;1.67;1.45;;;;;;;22.13;52.64;93805.84;4989748;28;20045;-92
2023/09/02 09:04:52;;;;;;;6.90;1.67;;;;;;;22.12;52.50;93815.38;4983072;28;20469;-93
2023/09/02 09:07:18;;;;;;;3.30;1.92;;;;;;;22.13;52.78;93814.13;4974957;28;20159;-93
2023/09/02 09:09:43;;;;;;;4.68;2.30;;;;;;;22.14;52.73;93809.34;4965204;28;20038;-92
2023/09/02 09:12:09;;;;;;;6.72;3.20;;;;;;;22.14;52.58;93820.38;4982390;28;20587;-92
2023/09/02 09:14:37;;;;;;;11.55;4.50;;;;;;;22.11;52.67;93805.63;4964832;28;20053;-94
2023/09/02 09:17:04;;;;;;;35.90;7.13;;;;;;;22.12;52.41;93820.16;4972653;28;20049;-93
2023/09/02 09:19:29;;;;;;;8.45;3.10;;;;;;;22.12;52.71;93815.38;5015247;28;20047;-95
2023/09/02 09:21:55;;;;;;;17.02;3.72;;;;;;;22.13;52.53;93821.63;5009195;28;20049;-92
2023/09/02 09:24:20;;;;;;;121.50;15.32;;;;;;;22.12;52.91;93829.16;4983407;28;20054;-93
2023/09/02 09:26:46;;;;;;;16.33;4.25;;;;;;;22.15;52.78;93838.38;5001803;28;20049;-95
2023/09/02 09:29:14;;;;;;;9.32;4.00;;;;;;;22.16;52.65;93828.84;4989969;28;20042;-93
2023/09/02 09:31:39;;;;;;;19.63;4.70;;;;;;;22.16;52.47;93829.59;4989993;28;20041;-92
2023/09/02 09:34:06;;;;;;;23.90;4.85;;;;;;;22.15;52.91;93827.38;4993259;28;20452;-94
2023/09/02 09:36:32;;;;;;;31.48;7.75;;;;;;;22.15;52.54;93830.88;4995244;28;20045;-93
2023/09/02 09:38:59;;;;;;;32.35;7.57;;;;;;;22.17;52.83;93835.84;5003922;28;20042;-92
2023/09/02 09:41:35;;;;;;;19.77;4.47;;;;;;;22.14;52.92;93834.88;5005246;28;20041;-92
2023/09/02 09:44:06;;;;;;;39.05;8.50;;;;;;;22.14;52.91;93839.66;5012020;28;20038;-92
2023/09/02 09:46:47;;;;;;;34.33;8.13;;;;;;;22.17;52.91;93838.59;5037426;28;20042;-93
2023/09/02 09:49:24;;;;;;;44.50;8.88;;;;;;;22.14;52.95;93834.88;5017531;28;20045;-94
2023/09/02 09:52:00;;;;;;;52.00;13.18;;;;;;;22.16;53.02;93845.38;5011603;28;20050;-92
2023/09/02 09:54:53;;;;;;;41.88;13.77;;;;;;;22.15;53.27;93838.38;5013370;28;20341;-95
2023/09/02 09:57:38;;;;;;;62.35;15.98;;;;;;;22.15;53.02;93838.38;4998332;28;20037;-93
2023/09/02 10:00:05;;;;;;;52.75;15.52;;;;;;;22.17;52.69;93839.34;5000883;28;20038;-93
2023/09/02 10:02:30;;;;;;;66.82;18.08;;;;;;;22.15;53.15;93833.63;4975318;28;20045;-94
2023/09/02 10:04:57;;;;;;;59.72;17.13;;;;;;;22.15;52.86;93844.63;4990079;28;20084;-93
2023/09/02 10:07:32;;;;;;;77.00;17.83;;;;;;;22.14;52.93;93845.16;5010494;28;20315;-93
2023/09/02 10:10:00;;;;;;;55.42;17.15;;;;;;;22.15;53.08;93841.13;5002772;28;20135;-94
2023/09/02 10:12:27;;;;;;;58.17;18.02;;;;;;;22.15;52.79;93838.38;4998885;28;20045;-94
2023/09/02 10:15:02;;;;;;;55.28;16.63;;;;;;;22.15;53.17;93841.88;4990782;28;20038;-95
2023/09/02 10:17:27;;;;;;;57.40;17.67;;;;;;;22.16;52.99;93842.63;5019629;28;20068;-93
2023/09/02 10:19:53;;;;;;;69.90;18.52;;;;;;;22.17;52.96;93836.59;4990892;28;20053;-93
2023/09/02 10:22:20;;;;;;;49.78;15.68;;;;;;;22.16;52.65;93840.59;5004716;28;20046;-94
2023/09/02 10:25:17;;;;;;;51.58;16.92;;;;;;;22.16;52.91;93834.34;4986172;28;20026;-93
2023/09/02 10:27:43;;;;;;;68.15;17.67;;;;;;;22.18;52.99;93837.34;4998897;28;20195;-93
2023/09/02 10:30:11;;;;;;;51.08;15.63;;;;;;;22.18;53.03;93840.81;5013007;28;20133;-92
2023/09/02 10:32:41;;;;;;;52.25;16.05;;;;;;;22.16;52.80;93834.34;4996770;28;20046;-94
2023/09/02 10:35:13;;;;;;;68.60;18.38;;;;;;;22.17;52.91;93839.34;5021376;28;20034;-93
2023/09/02 10:37:48;;;;;;;47.75;15.02;;;;;;;22.18;53.00;93843.59;5016565;28;20052;-94
2023/09/02 10:40:23;;;;;;;60.28;17.83;;;;;;;22.16;52.90;93848.13;5007593;28;20077;-93
2023/09/02 10:42:49;;;;;;;59.78;17.42;;;;;;;22.15;52.92;93850.13;5004029;28;20501;-95
2023/09/02 10:45:18;;;;;;;50.33;15.93;;;;;;;22.17;52.76;93849.63;4990734;28;20034;-95
2023/09/02 10:47:44;;;;;;;57.63;14.90;;;;;;;22.18;52.77;93848.34;5008373;28;20101;-94
2023/09/02 10:50:11;;;;;;;53.45;15.85;;;;;;;22.16;52.79;93842.63;5006059;28;20065;-92
2023/09/02 10:52:37;;;;;;;51.00;16.25;;;;;;;22.18;53.00;93849.09;5023179;28;20526;-93
2023/09/02 10:55:06;;;;;;;43.85;14.05;;;;;;;22.20;52.98;93848.56;5007566;28;20038;-92
2023/09/02 10:57:43;;;;;;;46.25;14.63;;;;;;;22.19;53.01;93847.81;5017226;28;20041;-92
2023/09/02 11:00:18;;;;;;;39.90;13.85;;;;;;;22.19;52.77;93850.56;5024679;28;20125;-93
2023/09/02 11:02:44;;;;;;;45.72;13.32;;;;;;;22.21;52.98;93859.06;5008925;28;20072;-94
2023/09/02 11:05:10;;;;;;;40.92;14.18;;;;;;;22.20;52.88;93852.06;5003957;28;20033;-92
2023/09/02 11:07:39;;;;;;;48.80;15.38;;;;;;;22.21;52.97;93848.03;5013252;28;20182;-94
2023/09/02 11:10:05;;;;;;;45.67;16.85;;;;;;;22.22;52.91;93843.28;5035769;28;20045;-92
2023/09/02 11:12:59;;;;;;;36.72;13.82;;;;;;;22.20;52.80;93845.81;5015731;28;20038;-93
2023/09/02 11:15:25;;;;;;;47.47;14.88;;;;;;;22.21;52.89;93842.53;5031930;28;20050;-93
2023/09/02 11:17:50;;;;;;;59.25;16.90;;;;;;;22.21;52.81;93850.81;5008940;28;20048;-94
2023/09/02 11:20:26;;;;;;;40.15;15.73;;;;;;;22.20;52.93;93848.56;5023106;28;20052;-95
2023/09/02 11:22:56;;;;;;;44.58;14.57;;;;;;;22.19;52.90;93845.06;5012656;28;20452;-94
2023/09/02 11:25:28;;;;;;;57.15;17.48;;;;;;;22.20;53.14;93846.56;5009897;28;20034;-94
2023/09/02 11:27:55;;;;;;;48.17;14.75;;;;;;;22.21;53.08;93839.78;5020347;28;20037;-94
2023/09/02 11:30:21;;;;;;;52.90;17.30;;;;;;;22.21;52.89;93845.28;5001817;28;20046;-92